GCTS

Tenerife South Airport

Tenerife Island, Spain
TAF GCTS 190800Z 1909/2009 05012KT 9999 FEW030 TX26/1915Z TN19/2005Z TEMPO 1910/1919 VRB08KT BECMG 1919/1921 35005KT PROB30 TEMPO 1912/2006 DZ
Issued Valid From Valid To
Oct-19 @ 08:00 UTC
(an hour ago)
Oct-19 @ 09:00 UTC
(7 minutes ago)
Oct-20 @ 09:00 UTC
(in 24 hours)
Oct-19 @ 09:00 to Oct-19 @ 19:00
TAF GCTS 190800Z 1909/2009 05012KT 9999 FEW030 TX26/1915Z TN19/2005Z
Wind Visibility Clouds
50° at 12 knots 10,000+ meters
  • Few at 3,000' AGL
Temporary Oct-19 @ 10:00 to Oct-19 @ 19:00
TEMPO 1910/1919 VRB08KT
Wind
Variable at 8 knots
Temporary  (Probability 30%) Oct-19 @ 12:00 to Oct-20 @ 06:00
PROB30 TEMPO 1912/2006 DZ
Conditions
  • Drizzle
Becoming Oct-19 @ 19:00 to Oct-20 @ 09:00
BECMG 1919/1921 35005KT
Wind Visibility Clouds
350° at 5 knots 10,000+ meters
  • Few at 3,000' AGL
TAF GCTS 190800Z 1909/2009 05012KT 9999 FEW030 TX26/1915Z TN19/2005Z TEMPO 1910/1919 VRB08KT BECMG 1919/1921 35005KT PROB30 TEMPO 1912/2006 DZ
Issued Oct-19 @ 08:00 UTC
(an hour ago)
Valid From Oct-19 @ 09:00 UTC
(7 minutes ago)
Valid To Oct-20 @ 09:00 UTC
(in 24 hours)
Oct-19 @ 09:00 - Oct-19 @ 19:00
Wind Visibility
50° at 12 knots 10,000+ meters
Clouds
  • Few at 3,000' AGL
Temporary Oct-19 @ 10:00 - Oct-19 @ 19:00
Wind
Variable at 8 knots
Probability 30% Temporary Oct-19 @ 12:00 - Oct-20 @ 06:00
Conditions
  • Drizzle
Becoming Oct-19 @ 19:00 - Oct-20 @ 09:00
Wind Visibility
350° at 5 knots 10,000+ meters
Clouds
  • Few at 3,000' AGL